sensor_id;sensor_type;location;lat;lon;timestamp;P1;durP1;ratioP1;P2;durP2;ratioP2
57893;SDS011;43710;47.460;19.034;2022-09-09T03:55:39;4.03;;;1.60;;
57893;SDS011;43710;47.460;19.034;2022-09-09T03:58:45;4.82;;;1.80;;
57893;SDS011;43710;47.460;19.034;2022-09-09T04:01:47;3.08;;;1.55;;
57893;SDS011;43710;47.460;19.034;2022-09-09T04:04:50;2.45;;;1.65;;
57893;SDS011;43710;47.460;19.034;2022-09-09T04:07:52;3.30;;;1.95;;
57893;SDS011;43710;47.460;19.034;2022-09-09T04:10:59;4.40;;;1.70;;
57893;SDS011;43710;47.460;19.034;2022-09-09T04:14:04;3.97;;;2.10;;
57893;SDS011;43710;47.460;19.034;2022-09-09T04:17:08;4.57;;;2.08;;
57893;SDS011;43710;47.460;19.034;2022-09-09T04:20:11;2.87;;;1.73;;
57893;SDS011;43710;47.460;19.034;2022-09-09T04:23:14;2.62;;;2.08;;
57893;SDS011;43710;47.460;19.034;2022-09-09T04:26:18;5.25;;;1.90;;
57893;SDS011;43710;47.460;19.034;2022-09-09T04:29:20;2.10;;;1.75;;
57893;SDS011;43710;47.460;19.034;2022-09-09T04:32:22;3.37;;;2.08;;
57893;SDS011;43710;47.460;19.034;2022-09-09T04:35:25;3.60;;;2.20;;
57893;SDS011;43710;47.460;19.034;2022-09-09T04:38:30;5.37;;;2.10;;
57893;SDS011;43710;47.460;19.034;2022-09-09T04:41:32;5.18;;;1.80;;
57893;SDS011;43710;47.460;19.034;2022-09-09T04:44:34;2.22;;;1.83;;
57893;SDS011;43710;47.460;19.034;2022-09-09T04:47:37;2.45;;;1.70;;
57893;SDS011;43710;47.460;19.034;2022-09-09T04:50:39;3.72;;;1.80;;
57893;SDS011;43710;47.460;19.034;2022-09-09T04:53:43;5.65;;;2.03;;
57893;SDS011;43710;47.460;19.034;2022-09-09T04:56:49;5.80;;;2.20;;
57893;SDS011;43710;47.460;19.034;2022-09-09T04:59:53;3.37;;;2.08;;
57893;SDS011;43710;47.460;19.034;2022-09-09T05:02:55;2.62;;;2.00;;
57893;SDS011;43710;47.460;19.034;2022-09-09T05:06:06;4.18;;;2.30;;
57893;SDS011;43710;47.460;19.034;2022-09-09T05:09:10;4.75;;;2.05;;
57893;SDS011;43710;47.460;19.034;2022-09-09T05:12:13;2.03;;;1.83;;
57893;SDS011;43710;47.460;19.034;2022-09-09T05:15:15;3.65;;;1.83;;
57893;SDS011;43710;47.460;19.034;2022-09-09T05:18:17;2.67;;;2.00;;
57893;SDS011;43710;47.460;19.034;2022-09-09T05:21:21;6.43;;;2.70;;
57893;SDS011;43710;47.460;19.034;2022-09-09T05:24:25;5.70;;;2.58;;
57893;SDS011;43710;47.460;19.034;2022-09-09T05:27:27;3.97;;;2.35;;
57893;SDS011;43710;47.460;19.034;2022-09-09T05:30:30;6.32;;;2.62;;
57893;SDS011;43710;47.460;19.034;2022-09-09T05:33:33;3.05;;;2.35;;
57893;SDS011;43710;47.460;19.034;2022-09-09T05:36:37;8.55;;;2.83;;
57893;SDS011;43710;47.460;19.034;2022-09-09T05:39:40;7.85;;;2.33;;
57893;SDS011;43710;47.460;19.034;2022-09-09T05:42:43;4.62;;;2.12;;
57893;SDS011;43710;47.460;19.034;2022-09-09T05:45:46;5.03;;;2.12;;
57893;SDS011;43710;47.460;19.034;2022-09-09T05:48:49;3.80;;;2.37;;
57893;SDS011;43710;47.460;19.034;2022-09-09T05:51:53;5.87;;;2.00;;
57893;SDS011;43710;47.460;19.034;2022-09-09T05:54:57;6.00;;;2.37;;
57893;SDS011;43710;47.460;19.034;2022-09-09T05:58:00;7.22;;;2.40;;
57893;SDS011;43710;47.460;19.034;2022-09-09T06:01:07;8.02;;;2.22;;
57893;SDS011;43710;47.460;19.034;2022-09-09T06:04:15;8.57;;;2.30;;
57893;SDS011;43710;47.460;19.034;2022-09-09T06:07:17;2.83;;;2.30;;
57893;SDS011;43710;47.460;19.034;2022-09-09T06:10:20;3.05;;;1.77;;
57893;SDS011;43710;47.460;19.034;2022-09-09T06:13:23;3.00;;;1.87;;
57893;SDS011;43710;47.460;19.034;2022-09-09T06:16:27;2.10;;;1.70;;
57893;SDS011;43710;47.460;19.034;2022-09-09T06:19:31;5.85;;;2.08;;
57893;SDS011;43710;47.460;19.034;2022-09-09T06:22:34;3.95;;;1.67;;
57893;SDS011;43710;47.460;19.034;2022-09-09T06:25:36;3.22;;;1.92;;
57893;SDS011;43710;47.460;19.034;2022-09-09T06:28:39;9.85;;;2.40;;
57893;SDS011;43710;47.460;19.034;2022-09-09T06:31:41;5.40;;;2.20;;
57893;SDS011;43710;47.460;19.034;2022-09-09T06:34:44;4.65;;;2.08;;
57893;SDS011;43710;47.460;19.034;2022-09-09T06:37:47;1.95;;;1.62;;
57893;SDS011;43710;47.460;19.034;2022-09-09T06:40:55;4.15;;;2.00;;
57893;SDS011;43710;47.460;19.034;2022-09-09T06:44:00;1.73;;;1.50;;
57893;SDS011;43710;47.460;19.034;2022-09-09T06:47:05;2.70;;;1.80;;
57893;SDS011;43710;47.460;19.034;2022-09-09T06:50:08;2.45;;;1.42;;
57893;SDS011;43710;47.460;19.034;2022-09-09T06:53:15;2.85;;;1.70;;
57893;SDS011;43710;47.460;19.034;2022-09-09T06:59:35;4.00;;;1.87;;
57893;SDS011;43710;47.460;19.034;2022-09-09T07:02:37;5.05;;;1.95;;
57893;SDS011;43710;47.460;19.034;2022-09-09T07:05:41;4.53;;;1.90;;
57893;SDS011;43710;47.460;19.034;2022-09-09T07:08:44;3.60;;;1.87;;
57893;SDS011;43710;47.460;19.034;2022-09-09T07:11:58;4.55;;;1.70;;
57893;SDS011;43710;47.460;19.034;2022-09-09T07:15:01;4.12;;;1.95;;
57893;SDS011;43710;47.460;19.034;2022-09-09T07:18:04;4.20;;;1.80;;
57893;SDS011;43710;47.460;19.034;2022-09-09T07:21:07;4.60;;;2.08;;
57893;SDS011;43710;47.460;19.034;2022-09-09T07:24:15;7.05;;;2.17;;
57893;SDS011;43710;47.460;19.034;2022-09-09T07:27:17;6.90;;;1.98;;
57893;SDS011;43710;47.460;19.034;2022-09-09T07:30:21;3.75;;;1.77;;
57893;SDS011;43710;47.460;19.034;2022-09-09T07:33:29;5.90;;;1.98;;
57893;SDS011;43710;47.460;19.034;2022-09-09T07:36:34;2.22;;;1.90;;
57893;SDS011;43710;47.460;19.034;2022-09-09T07:39:37;3.10;;;2.10;;
57893;SDS011;43710;47.460;19.034;2022-09-09T07:42:41;1.65;;;1.40;;
57893;SDS011;43710;47.460;19.034;2022-09-09T07:45:43;5.32;;;1.80;;
57893;SDS011;43710;47.460;19.034;2022-09-09T07:48:46;2.47;;;1.77;;
57893;SDS011;43710;47.460;19.034;2022-09-09T07:51:54;3.70;;;1.95;;
57893;SDS011;43710;47.460;19.034;2022-09-09T07:54:56;4.57;;;2.03;;
57893;SDS011;43710;47.460;19.034;2022-09-09T07:57:59;2.08;;;1.62;;
57893;SDS011;43710;47.460;19.034;2022-09-09T08:01:05;4.62;;;1.80;;
57893;SDS011;43710;47.460;19.034;2022-09-09T08:04:16;3.12;;;1.30;;
57893;SDS011;43710;47.460;19.034;2022-09-09T08:07:20;5.00;;;1.40;;
57893;SDS011;43710;47.460;19.034;2022-09-09T08:10:23;3.15;;;1.55;;
57893;SDS011;43710;47.460;19.034;2022-09-09T08:13:27;6.25;;;1.33;;
57893;SDS011;43710;47.460;19.034;2022-09-09T08:16:30;2.42;;;1.40;;
57893;SDS011;43710;47.460;19.034;2022-09-09T08:19:34;4.97;;;1.15;;
57893;SDS011;43710;47.460;19.034;2022-09-09T08:22:39;5.12;;;1.50;;
57893;SDS011;43710;47.460;19.034;2022-09-09T08:25:42;3.72;;;1.00;;
57893;SDS011;43710;47.460;19.034;2022-09-09T08:28:44;1.17;;;1.02;;
57893;SDS011;43710;47.460;19.034;2022-09-09T08:31:51;6.60;;;1.42;;
57893;SDS011;43710;47.460;19.034;2022-09-09T08:34:56;7.15;;;1.40;;
57893;SDS011;43710;47.460;19.034;2022-09-09T08:38:02;8.32;;;1.40;;
57893;SDS011;43710;47.460;19.034;2022-09-09T08:51:47;4.25;;;1.25;;
57893;SDS011;43710;47.460;19.034;2022-09-09T08:54:51;1.73;;;1.10;;
57893;SDS011;43710;47.460;19.034;2022-09-09T08:57:57;3.62;;;1.00;;
57893;SDS011;43710;47.460;19.034;2022-09-09T09:05:06;3.22;;;1.25;;
57893;SDS011;43710;47.460;19.034;2022-09-09T09:08:26;3.22;;;1.33;;
57893;SDS011;43710;47.460;19.034;2022-09-09T09:11:56;1.65;;;0.93;;
57893;SDS011;43710;47.460;19.034;2022-09-09T09:15:09;2.40;;;1.10;;
57893;SDS011;43710;47.460;19.034;2022-09-09T09:18:19;5.47;;;1.23;;
57893;SDS011;43710;47.460;19.034;2022-09-09T09:21:26;4.07;;;1.30;;
57893;SDS011;43710;47.460;19.034;2022-09-09T09:24:52;7.90;;;1.55;;
57893;SDS011;43710;47.460;19.034;2022-09-09T09:27:58;2.90;;;1.12;;
57893;SDS011;43710;47.460;19.034;2022-09-09T09:31:06;1.80;;;1.23;;
57893;SDS011;43710;47.460;19.034;2022-09-09T09:34:10;4.30;;;1.37;;
57893;SDS011;43710;47.460;19.034;2022-09-09T09:37:18;3.87;;;1.65;;
57893;SDS011;43710;47.460;19.034;2022-09-09T09:40:29;2.37;;;1.50;;
57893;SDS011;43710;47.460;19.034;2022-09-09T09:46:36;2.00;;;1.30;;
57893;SDS011;43710;47.460;19.034;2022-09-09T09:49:53;2.62;;;1.10;;
57893;SDS011;43710;47.460;19.034;2022-09-09T09:53:03;1.67;;;1.10;;
57893;SDS011;43710;47.460;19.034;2022-09-09T09:56:09;2.22;;;0.93;;
57893;SDS011;43710;47.460;19.034;2022-09-09T09:59:21;3.17;;;0.80;;
57893;SDS011;43710;47.460;19.034;2022-09-09T10:02:45;1.20;;;0.85;;
57893;SDS011;43710;47.460;19.034;2022-09-09T10:05:49;3.03;;;0.80;;
57893;SDS011;43710;47.460;19.034;2022-09-09T10:08:52;3.83;;;0.90;;
57893;SDS011;43710;47.460;19.034;2022-09-09T10:19:00;3.58;;;1.05;;
57893;SDS011;43710;47.460;19.034;2022-09-09T10:22:25;1.58;;;0.80;;
57893;SDS011;43710;47.460;19.034;2022-09-09T10:25:43;2.25;;;0.80;;
57893;SDS011;43710;47.460;19.034;2022-09-09T10:35:47;2.87;;;0.80;;
57893;SDS011;43710;47.460;19.034;2022-09-09T10:42:31;2.62;;;1.00;;
57893;SDS011;43710;47.460;19.034;2022-09-09T10:49:05;2.00;;;0.82;;
57893;SDS011;43710;47.460;19.034;2022-09-09T10:52:32;1.40;;;0.85;;
57893;SDS011;43710;47.460;19.034;2022-09-09T10:56:01;1.23;;;0.80;;
57893;SDS011;43710;47.460;19.034;2022-09-09T10:59:15;1.12;;;0.68;;
57893;SDS011;43710;47.460;19.034;2022-09-09T11:02:29;2.67;;;1.00;;
57893;SDS011;43710;47.460;19.034;2022-09-09T11:05:39;1.58;;;0.80;;
57893;SDS011;43710;47.460;19.034;2022-09-09T11:08:44;1.12;;;0.80;;
57893;SDS011;43710;47.460;19.034;2022-09-09T11:11:52;1.10;;;0.80;;
57893;SDS011;43710;47.460;19.034;2022-09-09T11:15:04;1.35;;;0.82;;
57893;SDS011;43710;47.460;19.034;2022-09-09T11:18:11;1.10;;;1.00;;
57893;SDS011;43710;47.460;19.034;2022-09-09T11:24:53;1.80;;;0.90;;
57893;SDS011;43710;47.460;19.034;2022-09-09T11:28:27;1.30;;;0.77;;
57893;SDS011;43710;47.460;19.034;2022-09-09T11:31:43;2.03;;;1.00;;
57893;SDS011;43710;47.460;19.034;2022-09-09T11:35:12;1.37;;;0.90;;
57893;SDS011;43710;47.460;19.034;2022-09-09T11:38:41;1.35;;;0.90;;
57893;SDS011;43710;47.460;19.034;2022-09-09T11:41:48;0.80;;;0.80;;
57893;SDS011;43710;47.460;19.034;2022-09-09T11:44:51;1.37;;;0.90;;
57893;SDS011;43710;47.460;19.034;2022-09-09T11:47:57;1.40;;;0.95;;
57893;SDS011;43710;47.460;19.034;2022-09-09T11:51:03;1.37;;;1.20;;
57893;SDS011;43710;47.460;19.034;2022-09-09T11:54:27;2.08;;;0.90;;
57893;SDS011;43710;47.460;19.034;2022-09-09T11:57:32;1.75;;;0.90;;
57893;SDS011;43710;47.460;19.034;2022-09-09T12:00:47;4.95;;;1.30;;
57893;SDS011;43710;47.460;19.034;2022-09-09T12:03:51;8.13;;;1.50;;
57893;SDS011;43710;47.460;19.034;2022-09-09T12:07:05;3.80;;;1.30;;
57893;SDS011;43710;47.460;19.034;2022-09-09T12:10:41;2.05;;;1.15;;
57893;SDS011;43710;47.460;19.034;2022-09-09T12:13:51;1.10;;;0.90;;
57893;SDS011;43710;47.460;19.034;2022-09-09T12:16:54;4.10;;;1.05;;
57893;SDS011;43710;47.460;19.034;2022-09-09T12:20:06;1.73;;;1.35;;
57893;SDS011;43710;47.460;19.034;2022-09-09T12:26:43;2.08;;;1.20;;
57893;SDS011;43710;47.460;19.034;2022-09-09T12:30:01;1.30;;;1.20;;
57893;SDS011;43710;47.460;19.034;2022-09-09T12:33:13;2.58;;;1.15;;
57893;SDS011;43710;47.460;19.034;2022-09-09T12:36:21;1.20;;;1.10;;
57893;SDS011;43710;47.460;19.034;2022-09-09T12:42:39;4.62;;;1.25;;
57893;SDS011;43710;47.460;19.034;2022-09-09T12:45:42;1.10;;;1.00;;
57893;SDS011;43710;47.460;19.034;2022-09-09T12:48:44;1.62;;;1.12;;
57893;SDS011;43710;47.460;19.034;2022-09-09T12:51:47;1.98;;;1.20;;
57893;SDS011;43710;47.460;19.034;2022-09-09T12:54:51;2.45;;;1.77;;
57893;SDS011;43710;47.460;19.034;2022-09-09T12:57:53;2.08;;;1.87;;
57893;SDS011;43710;47.460;19.034;2022-09-09T13:00:56;1.55;;;1.10;;
57893;SDS011;43710;47.460;19.034;2022-09-09T13:03:59;2.87;;;1.30;;
57893;SDS011;43710;47.460;19.034;2022-09-09T13:07:05;2.10;;;1.10;;
57893;SDS011;43710;47.460;19.034;2022-09-09T13:10:12;1.20;;;1.10;;
57893;SDS011;43710;47.460;19.034;2022-09-09T13:13:34;1.42;;;1.33;;
57893;SDS011;43710;47.460;19.034;2022-09-09T13:16:38;4.65;;;1.33;;
57893;SDS011;43710;47.460;19.034;2022-09-09T13:19:44;3.50;;;2.00;;
57893;SDS011;43710;47.460;19.034;2022-09-09T13:22:52;5.90;;;1.48;;
57893;SDS011;43710;47.460;19.034;2022-09-09T13:25:57;2.00;;;1.10;;
57893;SDS011;43710;47.460;19.034;2022-09-09T13:29:15;10.07;;;1.60;;
57893;SDS011;43710;47.460;19.034;2022-09-09T13:32:20;6.47;;;1.23;;
57893;SDS011;43710;47.460;19.034;2022-09-09T13:35:22;1.73;;;1.20;;
57893;SDS011;43710;47.460;19.034;2022-09-09T13:38:27;4.68;;;1.17;;
57893;SDS011;43710;47.460;19.034;2022-09-09T13:41:33;0.80;;;0.80;;
57893;SDS011;43710;47.460;19.034;2022-09-09T13:44:44;5.15;;;0.98;;
57893;SDS011;43710;47.460;19.034;2022-09-09T13:47:48;5.22;;;1.08;;
57893;SDS011;43710;47.460;19.034;2022-09-09T13:50:55;5.15;;;1.00;;
57893;SDS011;43710;47.460;19.034;2022-09-09T13:54:09;7.87;;;1.62;;
57893;SDS011;43710;47.460;19.034;2022-09-09T13:57:19;6.85;;;1.50;;
57893;SDS011;43710;47.460;19.034;2022-09-09T14:00:25;3.03;;;0.90;;
57893;SDS011;43710;47.460;19.034;2022-09-09T14:03:27;4.40;;;1.37;;
57893;SDS011;43710;47.460;19.034;2022-09-09T14:06:29;8.13;;;1.75;;
57893;SDS011;43710;47.460;19.034;2022-09-09T14:09:31;3.40;;;1.30;;
57893;SDS011;43710;47.460;19.034;2022-09-09T14:12:34;5.05;;;1.02;;
57893;SDS011;43710;47.460;19.034;2022-09-09T14:15:38;3.37;;;1.10;;
57893;SDS011;43710;47.460;19.034;2022-09-09T14:18:40;5.47;;;1.27;;
57893;SDS011;43710;47.460;19.034;2022-09-09T14:21:42;4.10;;;1.20;;
57893;SDS011;43710;47.460;19.034;2022-09-09T14:24:46;2.92;;;1.00;;
57893;SDS011;43710;47.460;19.034;2022-09-09T14:27:48;4.22;;;1.37;;
57893;SDS011;43710;47.460;19.034;2022-09-09T14:30:52;2.83;;;1.20;;
57893;SDS011;43710;47.460;19.034;2022-09-09T14:33:55;2.70;;;1.10;;
57893;SDS011;43710;47.460;19.034;2022-09-09T14:36:57;1.45;;;0.90;;
57893;SDS011;43710;47.460;19.034;2022-09-09T14:40:00;1.10;;;1.00;;
57893;SDS011;43710;47.460;19.034;2022-09-09T14:43:03;1.42;;;0.90;;
57893;SDS011;43710;47.460;19.034;2022-09-09T14:46:10;2.15;;;1.08;;
57893;SDS011;43710;47.460;19.034;2022-09-09T14:49:14;4.47;;;1.00;;
57893;SDS011;43710;47.460;19.034;2022-09-09T14:52:17;1.95;;;1.00;;
57893;SDS011;43710;47.460;19.034;2022-09-09T14:55:19;2.90;;;1.00;;
